createdAt,value
2022-10-21T00:01:16.167Z,11.33
2022-10-21T00:03:43.595Z,11.40
2022-10-21T00:06:11.481Z,10.47
2022-10-21T00:08:39.127Z,11.20
2022-10-21T00:11:09.103Z,12.23
2022-10-21T00:13:40.259Z,11.50
2022-10-21T00:16:14.348Z,11.97
2022-10-21T00:18:46.012Z,10.63
2022-10-21T00:21:22.988Z,11.20
2022-10-21T00:23:50.224Z,12.87
2022-10-21T00:26:18.998Z,12.10
2022-10-21T00:28:48.333Z,12.20
2022-10-21T00:31:16.268Z,11.80
2022-10-21T00:33:49.072Z,12.53
2022-10-21T00:36:18.478Z,13.50
2022-10-21T00:38:50.429Z,12.87
2022-10-21T00:41:19.553Z,11.73
2022-10-21T00:44:14.405Z,12.00
2022-10-21T00:46:49.552Z,13.80
2022-10-21T00:49:51.760Z,12.20
2022-10-21T00:52:26.158Z,12.80
2022-10-21T00:54:56.315Z,12.30
2022-10-21T00:57:28.570Z,12.37
2022-10-21T01:00:02.097Z,12.20
2022-10-21T01:02:32.267Z,11.83
2022-10-21T01:05:03.671Z,11.90
2022-10-21T01:07:37.580Z,12.27
2022-10-21T01:10:08.253Z,13.70
2022-10-21T01:12:47.272Z,12.10
2022-10-21T01:15:53.740Z,12.93
2022-10-21T01:18:28.410Z,12.27
2022-10-21T01:21:13.982Z,12.57
2022-10-21T01:24:19.748Z,12.47
2022-10-21T01:27:21.122Z,12.60
2022-10-21T01:30:31.845Z,13.47
2022-10-21T01:33:08.044Z,12.93
2022-10-21T01:35:51.560Z,13.10
2022-10-21T01:38:39.403Z,13.10
2022-10-21T01:41:48.921Z,12.07
2022-10-21T01:44:29.011Z,12.70
2022-10-21T01:47:24.290Z,13.10
2022-10-21T01:50:08.446Z,12.43
2022-10-21T01:52:40.454Z,13.70
2022-10-21T01:55:13.961Z,13.03
2022-10-21T01:57:58.954Z,13.33
2022-10-21T02:03:03.393Z,13.00
2022-10-21T02:05:32.812Z,12.80
2022-10-21T02:07:59.790Z,13.50
2022-10-21T02:10:35.444Z,13.40
2022-10-21T02:13:12.403Z,12.50
2022-10-21T02:15:45.276Z,13.50
2022-10-21T02:18:25.020Z,13.07
2022-10-21T02:20:59.456Z,13.90
2022-10-21T02:23:51.409Z,14.73
2022-10-21T02:26:21.190Z,14.03
2022-10-21T02:28:51.253Z,13.80
2022-10-21T02:31:51.624Z,13.90
2022-10-21T02:34:47.207Z,12.10
2022-10-21T02:37:29.839Z,12.20
2022-10-21T02:40:05.641Z,12.63
2022-10-21T02:42:41.177Z,13.83
2022-10-21T02:45:10.171Z,12.40
2022-10-21T02:47:43.380Z,13.47
2022-10-21T02:50:10.627Z,13.80
2022-10-21T02:52:40.626Z,13.80
2022-10-21T02:55:08.169Z,13.57
2022-10-21T02:57:35.382Z,14.00
2022-10-21T03:00:02.517Z,12.73
2022-10-21T03:02:33.995Z,14.13
2022-10-21T03:05:03.734Z,12.87
2022-10-21T03:07:30.921Z,13.50
2022-10-21T03:10:01.001Z,14.60
2022-10-21T03:12:28.183Z,14.47
2022-10-21T03:14:57.335Z,12.93
2022-10-21T03:17:25.404Z,15.47
2022-10-21T03:19:52.501Z,14.23
2022-10-21T03:22:19.356Z,14.63
2022-10-21T03:24:48.342Z,14.40
2022-10-21T03:27:15.184Z,14.13
2022-10-21T03:29:44.513Z,15.47
2022-10-21T03:32:15.863Z,14.87
2022-10-21T03:34:45.215Z,15.30
2022-10-21T03:37:14.334Z,14.70
2022-10-21T03:39:41.197Z,15.50
2022-10-21T03:42:08.042Z,14.00
2022-10-21T03:44:37.419Z,15.23
2022-10-21T03:47:07.142Z,14.90
2022-10-21T03:52:06.252Z,15.70
2022-10-21T03:54:37.977Z,13.60
2022-10-21T03:57:05.229Z,15.93
2022-10-21T03:59:35.939Z,14.80
2022-10-21T04:02:02.912Z,14.70
2022-10-21T04:04:32.384Z,15.53
2022-10-21T04:06:59.257Z,14.73
2022-10-21T04:09:29.037Z,14.73
2022-10-21T04:11:55.865Z,16.13
2022-10-21T04:14:27.406Z,15.63
2022-10-21T04:17:07.363Z,14.90
2022-10-21T04:19:35.038Z,17.00
2022-10-21T04:22:01.871Z,14.93
2022-10-21T04:24:33.331Z,16.70
2022-10-21T04:27:02.694Z,16.93
2022-10-21T04:29:31.994Z,16.53
2022-10-21T04:32:01.142Z,17.77
2022-10-21T04:34:32.573Z,16.33
2022-10-21T04:37:05.205Z,16.73
2022-10-21T04:39:35.286Z,17.00
2022-10-21T04:42:05.155Z,16.23
2022-10-21T04:44:32.145Z,17.37
2022-10-21T04:47:04.483Z,16.07
2022-10-21T04:49:32.441Z,17.13
2022-10-21T04:51:59.288Z,15.43
2022-10-21T04:54:26.121Z,17.60
2022-10-21T04:56:52.963Z,17.67
2022-10-21T04:59:21.885Z,16.90
2022-10-21T05:01:48.792Z,17.80
2022-10-21T05:04:15.677Z,16.60
2022-10-21T05:06:42.595Z,17.67
2022-10-21T05:09:10.207Z,15.30
2022-10-21T05:11:39.599Z,17.60
2022-10-21T05:14:06.425Z,16.57
2022-10-21T05:16:33.256Z,17.40
2022-10-21T05:19:00.398Z,18.73
2022-10-21T05:21:32.723Z,16.80
2022-10-21T05:23:59.625Z,15.63
2022-10-21T05:26:29.151Z,19.27
2022-10-21T05:28:56.063Z,18.10
2022-10-21T05:31:22.927Z,17.67
2022-10-21T05:33:49.851Z,18.10
2022-10-21T05:36:18.516Z,18.90
2022-10-21T05:38:47.434Z,18.00
2022-10-21T05:41:14.367Z,16.93
2022-10-21T05:43:44.094Z,17.60
2022-10-21T05:46:16.041Z,22.77
2022-10-21T05:48:45.503Z,17.00
2022-10-21T05:51:14.565Z,17.87
2022-10-21T05:53:44.378Z,18.50
2022-10-21T05:56:13.965Z,18.47
2022-10-21T05:58:42.954Z,18.00
2022-10-21T06:01:09.858Z,17.93
2022-10-21T06:03:36.946Z,18.43
2022-10-21T06:06:08.031Z,19.60
2022-10-21T06:08:42.509Z,19.40
2022-10-21T06:11:14.440Z,18.00
2022-10-21T06:13:45.808Z,17.83
2022-10-21T06:16:14.143Z,17.40
2022-10-21T06:18:44.262Z,17.80
2022-10-21T06:21:14.182Z,18.63
2022-10-21T06:23:43.579Z,17.47
2022-10-21T06:26:18.764Z,17.70
2022-10-21T06:28:47.865Z,17.40
2022-10-21T06:31:23.555Z,18.10
2022-10-21T06:33:50.438Z,18.47
2022-10-21T06:36:23.389Z,17.70
2022-10-21T06:38:50.288Z,17.17
2022-10-21T06:41:18.659Z,18.40
2022-10-21T06:43:49.805Z,16.43
2022-10-21T06:46:21.688Z,16.87
2022-10-21T06:48:49.602Z,16.90
2022-10-21T06:51:24.909Z,17.37
2022-10-21T06:53:57.347Z,17.87
2022-10-21T06:56:31.808Z,17.57
2022-10-21T06:58:59.108Z,18.17
2022-10-21T07:01:41.016Z,18.27
2022-10-21T07:04:15.169Z,18.60
2022-10-21T07:06:46.102Z,17.67
2022-10-21T07:09:13.318Z,17.77
2022-10-21T07:11:44.819Z,22.20
2022-10-21T07:14:14.256Z,19.00
2022-10-21T07:16:41.140Z,16.30
2022-10-21T07:19:10.270Z,16.70
2022-10-21T07:21:39.285Z,19.10
2022-10-21T07:24:10.010Z,18.17
2022-10-21T07:26:43.619Z,18.30
2022-10-21T07:29:10.481Z,15.87
2022-10-21T07:31:42.530Z,16.37
2022-10-21T07:34:14.080Z,18.93
2022-10-21T07:36:52.689Z,19.03
2022-10-21T07:39:24.192Z,15.97
2022-10-21T07:41:54.433Z,16.33
2022-10-21T07:44:30.121Z,15.70
2022-10-21T07:46:59.231Z,15.47
2022-10-21T07:49:26.087Z,14.80
2022-10-21T07:51:53.853Z,15.83
2022-10-21T07:54:20.969Z,16.20
2022-10-21T07:56:57.028Z,17.50
2022-10-21T07:59:25.115Z,16.63
2022-10-21T08:01:57.751Z,17.13
2022-10-21T08:04:29.844Z,17.20
2022-10-21T08:06:57.310Z,17.63
2022-10-21T08:09:26.804Z,16.90
2022-10-21T08:11:53.696Z,16.23
2022-10-21T08:14:20.581Z,17.73
2022-10-21T08:16:52.956Z,18.30
2022-10-21T08:19:27.275Z,18.03
2022-10-21T08:21:54.470Z,20.17
2022-10-21T08:24:23.650Z,17.63
2022-10-21T08:26:51.607Z,17.80
2022-10-21T08:29:18.549Z,18.50
2022-10-21T08:31:47.969Z,18.17
2022-10-21T08:34:14.914Z,18.70
2022-10-21T08:36:46.420Z,18.60
2022-10-21T08:39:13.197Z,18.50
2022-10-21T08:42:10.934Z,18.20
2022-10-21T08:44:44.532Z,18.43
2022-10-21T08:47:35.547Z,17.63
2022-10-21T08:50:11.159Z,18.50
2022-10-21T08:52:49.225Z,18.97
2022-10-21T08:55:34.387Z,17.53
2022-10-21T08:58:05.278Z,17.70
2022-10-21T09:00:49.093Z,18.60
2022-10-21T09:03:37.018Z,18.27
2022-10-21T09:06:15.241Z,18.43
2022-10-21T09:08:57.476Z,18.00
2022-10-21T09:11:51.704Z,19.03
2022-10-21T09:14:36.487Z,18.10
2022-10-21T09:17:41.308Z,16.60
2022-10-21T09:20:29.984Z,16.20
2022-10-21T09:23:13.400Z,17.53
2022-10-21T09:26:18.801Z,17.90
2022-10-21T09:28:48.960Z,16.43
2022-10-21T09:31:21.431Z,15.90
2022-10-21T09:33:59.777Z,16.53
2022-10-21T09:36:35.258Z,15.00
2022-10-21T09:39:28.590Z,15.70
2022-10-21T09:42:11.378Z,14.70
2022-10-21T09:44:42.897Z,15.20
2022-10-21T09:47:23.581Z,16.10
2022-10-21T09:50:08.505Z,14.20
2022-10-21T09:52:37.806Z,14.67
2022-10-21T09:55:05.554Z,13.30
2022-10-21T09:57:46.350Z,14.00
2022-10-21T10:00:14.116Z,13.80
2022-10-21T10:02:44.299Z,14.43
2022-10-21T10:05:49.765Z,13.80
2022-10-21T10:08:38.191Z,12.77
2022-10-21T10:11:12.945Z,13.93
2022-10-21T10:13:52.204Z,12.67
2022-10-21T10:16:28.500Z,13.20
2022-10-21T10:19:28.309Z,13.17
2022-10-21T10:22:17.548Z,13.13
2022-10-21T10:24:45.182Z,13.10
2022-10-21T10:27:26.617Z,12.20
2022-10-21T10:29:56.674Z,12.60
2022-10-21T10:32:33.008Z,12.40
2022-10-21T10:35:04.932Z,12.97
2022-10-21T10:37:37.530Z,12.37
2022-10-21T10:40:24.582Z,10.50
2022-10-21T10:43:15.969Z,10.33
2022-10-21T10:46:04.804Z,10.37
2022-10-21T10:48:53.318Z,10.30
2022-10-21T10:51:35.907Z,10.00
2022-10-21T10:54:21.923Z,10.50
2022-10-21T10:56:59.456Z,11.70
2022-10-21T10:59:40.408Z,11.33
2022-10-21T11:02:10.174Z,10.47
2022-10-21T11:05:08.103Z,11.20
2022-10-21T11:07:44.256Z,10.40
2022-10-21T11:10:47.393Z,11.03
2022-10-21T11:13:23.347Z,10.30
2022-10-21T11:16:31.425Z,10.60
2022-10-21T11:19:15.290Z,10.40
2022-10-21T11:21:51.790Z,10.47
2022-10-21T11:24:52.056Z,10.40
2022-10-21T11:27:35.343Z,11.00
2022-10-21T11:30:17.643Z,11.10
2022-10-21T11:33:10.934Z,11.60
2022-10-21T11:36:01.834Z,10.00
2022-10-21T11:39:07.798Z,9.37
2022-10-21T11:42:16.508Z,9.70
2022-10-21T11:45:02.908Z,10.23
2022-10-21T11:47:52.130Z,9.50
2022-10-21T11:50:39.703Z,10.20
2022-10-21T11:53:36.750Z,8.70
2022-10-21T11:56:29.916Z,9.20
2022-10-21T11:59:21.070Z,8.77
2022-10-21T12:02:02.894Z,9.20
2022-10-21T12:04:34.722Z,9.27
2022-10-21T12:07:22.577Z,8.87
2022-10-21T12:09:51.989Z,8.80
2022-10-21T12:12:25.712Z,7.43
2022-10-21T12:15:00.166Z,8.70
2022-10-21T12:17:27.110Z,7.90
2022-10-21T12:20:00.010Z,8.40
2022-10-21T12:22:29.573Z,7.53
2022-10-21T12:25:14.540Z,8.90
2022-10-21T12:28:05.973Z,8.57
2022-10-21T12:31:06.180Z,7.90
2022-10-21T12:33:45.107Z,8.57
2022-10-21T12:36:43.492Z,10.20
2022-10-21T12:39:33.064Z,8.63
2022-10-21T12:42:06.948Z,8.63
2022-10-21T12:44:36.835Z,8.63
2022-10-21T12:47:43.757Z,9.23
2022-10-21T12:50:33.367Z,8.83
2022-10-21T12:53:42.912Z,8.67
2022-10-21T12:56:32.216Z,11.40
2022-10-21T12:59:06.804Z,8.40
2022-10-21T13:01:47.920Z,9.53
2022-10-21T13:04:34.783Z,7.20
2022-10-21T13:07:13.419Z,7.50
2022-10-21T13:09:46.343Z,8.43
2022-10-21T13:12:23.849Z,7.50
2022-10-21T13:14:55.745Z,7.97
2022-10-21T13:17:22.563Z,8.67
2022-10-21T13:19:53.894Z,9.50
2022-10-21T13:22:37.999Z,9.10
2022-10-21T13:25:16.990Z,9.90
2022-10-21T13:27:51.676Z,9.10
2022-10-21T13:30:36.802Z,9.40
2022-10-21T13:33:13.665Z,9.97
2022-10-21T13:36:14.830Z,9.73
2022-10-21T13:38:54.455Z,10.73
2022-10-21T13:41:35.834Z,10.13
2022-10-21T13:44:07.413Z,9.70
2022-10-21T13:46:43.670Z,10.50
2022-10-21T13:49:33.178Z,10.00
2022-10-21T13:52:12.599Z,10.57
2022-10-21T13:57:11.370Z,9.20
2022-10-21T13:59:38.227Z,9.77
2022-10-21T14:02:05.245Z,9.90
2022-10-21T14:04:42.948Z,9.47
2022-10-21T14:07:19.171Z,9.80
2022-10-21T14:09:48.174Z,9.53
2022-10-21T14:12:38.191Z,8.77
2022-10-21T14:15:21.890Z,10.20
2022-10-21T14:17:55.333Z,8.63
2022-10-21T14:20:33.993Z,9.73
2022-10-21T14:23:07.076Z,8.83
2022-10-21T14:25:34.878Z,8.60
2022-10-21T14:28:05.565Z,9.00
2022-10-21T14:30:34.156Z,8.70
2022-10-21T14:33:04.995Z,8.33
2022-10-21T14:35:34.292Z,9.10
2022-10-21T14:38:04.044Z,9.83
2022-10-21T14:40:35.831Z,8.30
2022-10-21T14:43:17.668Z,9.20
2022-10-21T14:45:51.335Z,9.37
2022-10-21T14:48:38.450Z,9.10
2022-10-21T14:51:17.840Z,9.10
2022-10-21T14:54:08.280Z,10.37
2022-10-21T14:56:41.517Z,9.33
2022-10-21T14:59:38.288Z,9.60
2022-10-21T15:02:27.565Z,10.10
2022-10-21T15:04:59.704Z,10.30
2022-10-21T15:07:39.467Z,10.70
2022-10-21T15:10:10.107Z,11.53
2022-10-21T15:12:45.743Z,11.97
2022-10-21T15:15:40.334Z,10.27
2022-10-21T15:18:43.012Z,10.23
2022-10-21T15:21:11.674Z,9.27
2022-10-21T15:23:44.844Z,9.40
2022-10-21T15:26:23.986Z,9.47
2022-10-21T15:29:26.514Z,8.53
2022-10-21T15:31:56.831Z,9.40
2022-10-21T15:34:27.536Z,11.10
2022-10-21T15:36:54.405Z,12.63
2022-10-21T15:39:21.449Z,11.80
2022-10-21T15:41:54.879Z,11.40
2022-10-21T15:44:31.661Z,10.17
2022-10-21T15:47:08.750Z,11.00
2022-10-21T15:49:43.163Z,11.40
2022-10-21T15:52:14.535Z,11.40
2022-10-21T15:54:42.263Z,10.13
2022-10-21T15:57:19.862Z,10.10
2022-10-21T15:59:48.038Z,10.40
2022-10-21T16:02:17.802Z,9.97
2022-10-21T16:04:46.516Z,11.50
2022-10-21T16:07:28.940Z,10.43
2022-10-21T16:09:56.902Z,9.73
2022-10-21T16:12:30.528Z,11.33
2022-10-21T16:14:57.360Z,11.30
2022-10-21T16:17:28.489Z,12.53
2022-10-21T16:19:55.367Z,12.20
2022-10-21T16:22:24.055Z,12.43
2022-10-21T16:24:53.973Z,12.20
2022-10-21T16:27:43.455Z,12.47
2022-10-21T16:30:22.183Z,13.17
2022-10-21T16:32:50.263Z,12.67
2022-10-21T16:35:21.096Z,13.60
2022-10-21T16:37:50.818Z,12.40
2022-10-21T16:40:23.743Z,13.60
2022-10-21T16:42:56.366Z,13.10
2022-10-21T16:45:28.283Z,11.80
2022-10-21T16:48:01.896Z,13.70
2022-10-21T16:50:40.805Z,12.33
2022-10-21T16:53:13.944Z,13.07
2022-10-21T16:55:43.750Z,11.90
2022-10-21T16:58:10.931Z,11.17
2022-10-21T17:00:43.166Z,10.30
2022-10-21T17:03:15.978Z,12.70
2022-10-21T17:05:42.867Z,10.97
2022-10-21T17:08:09.876Z,11.80
2022-10-21T17:10:36.939Z,12.70
2022-10-21T17:13:04.049Z,11.60
2022-10-21T17:15:31.096Z,11.73
2022-10-21T17:17:59.230Z,11.20
2022-10-21T17:20:32.788Z,12.10
2022-10-21T17:23:07.444Z,10.50
2022-10-21T17:25:39.376Z,13.03
2022-10-21T17:28:06.960Z,12.70
2022-10-21T17:30:33.908Z,13.20
2022-10-21T17:33:00.784Z,14.50
2022-10-21T17:35:29.937Z,13.23
2022-10-21T17:37:56.769Z,11.87
2022-10-21T17:40:29.752Z,13.00
2022-10-21T17:42:58.383Z,11.47
2022-10-21T17:45:25.754Z,12.90
2022-10-21T17:47:55.053Z,14.77
2022-10-21T17:50:25.896Z,13.90
2022-10-21T17:52:54.757Z,13.87
2022-10-21T17:55:22.197Z,13.97
2022-10-21T17:57:49.240Z,13.73
2022-10-21T18:00:16.271Z,14.20
2022-10-21T18:02:45.733Z,14.20
2022-10-21T18:05:14.747Z,13.93
2022-10-21T18:07:41.885Z,14.60
2022-10-21T18:10:11.347Z,14.10
2022-10-21T18:12:38.438Z,15.27
2022-10-21T18:15:06.050Z,14.20
2022-10-21T18:17:37.205Z,13.40
2022-10-21T18:20:04.879Z,13.60
2022-10-21T18:22:35.468Z,12.70
2022-10-21T18:25:02.300Z,13.23
2022-10-21T18:27:31.471Z,14.40
2022-10-21T18:30:00.679Z,14.00
2022-10-21T18:32:27.520Z,15.00
2022-10-21T18:34:58.978Z,18.10
2022-10-21T18:37:28.463Z,25.00
2022-10-21T18:39:59.021Z,17.23
2022-10-21T18:42:26.073Z,14.67
2022-10-21T18:44:52.865Z,14.17
2022-10-21T18:47:19.752Z,15.27
2022-10-21T18:49:50.711Z,15.60
2022-10-21T18:52:19.742Z,15.97
2022-10-21T18:54:49.571Z,13.93
2022-10-21T18:57:16.409Z,13.83
2022-10-21T18:59:43.223Z,14.43
2022-10-21T19:02:20.602Z,14.43
2022-10-21T19:04:47.919Z,14.70
2022-10-21T19:07:17.863Z,15.33
2022-10-21T19:09:45.020Z,16.17
2022-10-21T19:12:15.542Z,16.70
2022-10-21T19:14:44.275Z,16.20
2022-10-21T19:17:12.872Z,16.87
2022-10-21T19:19:39.686Z,16.23
2022-10-21T19:22:08.780Z,15.87
2022-10-21T19:24:35.975Z,16.13
2022-10-21T19:27:02.801Z,16.63
2022-10-21T19:29:32.225Z,16.50
2022-10-21T19:32:02.196Z,15.90
2022-10-21T19:34:31.546Z,16.50
2022-10-21T19:36:58.345Z,16.20
2022-10-21T19:39:27.314Z,15.63
2022-10-21T19:41:54.176Z,16.07
2022-10-21T19:44:21.214Z,17.10
2022-10-21T19:46:48.056Z,16.17
2022-10-21T19:49:17.403Z,17.30
2022-10-21T19:51:47.135Z,17.57
2022-10-21T19:54:14.303Z,16.10
2022-10-21T19:56:43.893Z,15.87
2022-10-21T19:59:13.774Z,15.90
2022-10-21T20:01:43.217Z,15.80
2022-10-21T20:04:12.597Z,15.87
2022-10-21T20:06:43.157Z,14.93
2022-10-21T20:09:13.040Z,16.37
2022-10-21T20:11:44.032Z,14.57
2022-10-21T20:14:13.446Z,16.17
2022-10-21T20:16:42.265Z,15.10
2022-10-21T20:19:12.814Z,14.90
2022-10-21T20:21:46.160Z,15.93
2022-10-21T20:24:17.010Z,15.10
2022-10-21T20:26:45.493Z,15.90
2022-10-21T20:29:15.449Z,16.47
2022-10-21T20:31:45.093Z,16.00
2022-10-21T20:34:16.266Z,15.93
2022-10-21T20:36:43.125Z,15.60
2022-10-21T20:39:11.231Z,16.70
2022-10-21T20:41:38.584Z,15.57
2022-10-21T20:44:12.227Z,16.03
2022-10-21T20:46:39.070Z,15.80
2022-10-21T20:49:12.996Z,16.80
2022-10-21T20:51:49.668Z,16.57
2022-10-21T20:54:28.052Z,15.43
2022-10-21T20:56:54.997Z,15.20
2022-10-21T20:59:28.976Z,16.93
2022-10-21T21:01:55.924Z,15.90
2022-10-21T21:04:25.214Z,16.90
2022-10-21T21:06:52.323Z,17.27
2022-10-21T21:12:10.269Z,17.40
2022-10-21T21:14:40.026Z,16.60
2022-10-21T21:17:07.401Z,16.70
2022-10-21T21:19:34.219Z,16.20
2022-10-21T21:22:01.209Z,17.93
2022-10-21T21:24:31.300Z,15.77
2022-10-21T21:27:00.624Z,17.10
2022-10-21T21:29:27.637Z,17.10
2022-10-21T21:31:56.543Z,17.23
2022-10-21T21:34:25.549Z,16.50
2022-10-21T21:36:52.372Z,16.80
2022-10-21T21:39:25.291Z,18.37
2022-10-21T21:41:52.167Z,18.00
2022-10-21T21:44:21.942Z,16.10
2022-10-21T21:46:50.966Z,15.90
2022-10-21T21:49:17.774Z,16.07
2022-10-21T21:51:46.366Z,15.77
2022-10-21T21:54:13.215Z,16.63
2022-10-21T21:56:40.079Z,16.23
2022-10-21T21:59:09.168Z,16.87
2022-10-21T22:01:36.782Z,17.20
2022-10-21T22:04:06.034Z,17.23
2022-10-21T22:06:36.942Z,16.70
2022-10-21T22:09:13.238Z,16.40
2022-10-21T22:11:40.129Z,16.57
2022-10-21T22:14:11.492Z,14.90
2022-10-21T22:16:40.980Z,15.93
2022-10-21T22:19:10.194Z,15.03
2022-10-21T22:21:39.570Z,16.03
2022-10-21T22:24:08.876Z,16.27
2022-10-21T22:26:35.688Z,16.30
2022-10-21T22:29:02.466Z,15.60
2022-10-21T22:31:34.566Z,16.67
2022-10-21T22:34:06.511Z,15.67
2022-10-21T22:36:36.084Z,15.60
2022-10-21T22:39:05.900Z,16.40
2022-10-21T22:41:34.798Z,16.07
2022-10-21T22:44:06.319Z,15.93
2022-10-21T22:46:35.546Z,17.50
2022-10-21T22:49:09.758Z,17.00
2022-10-21T22:51:39.081Z,16.83
2022-10-21T22:54:19.274Z,16.63
2022-10-21T22:56:57.731Z,17.03
2022-10-21T22:59:24.518Z,16.37
2022-10-21T23:01:53.735Z,16.90
2022-10-21T23:04:20.581Z,16.70
2022-10-21T23:06:49.888Z,16.30
2022-10-21T23:09:16.831Z,16.80
2022-10-21T23:11:44.222Z,16.07
2022-10-21T23:14:11.269Z,16.27
2022-10-21T23:16:42.341Z,17.13
2022-10-21T23:19:09.851Z,16.87
2022-10-21T23:21:39.807Z,17.30
2022-10-21T23:24:07.116Z,16.50
2022-10-21T23:26:35.535Z,16.70
2022-10-21T23:29:02.541Z,17.90
2022-10-21T23:31:29.362Z,17.23
2022-10-21T23:33:56.244Z,16.30
2022-10-21T23:36:27.874Z,16.50
2022-10-21T23:38:56.611Z,15.60
2022-10-21T23:41:23.769Z,15.77
2022-10-21T23:43:52.881Z,16.67
2022-10-21T23:46:22.612Z,16.00
2022-10-21T23:48:51.950Z,14.80
2022-10-21T23:51:19.130Z,14.50
2022-10-21T23:53:45.965Z,15.90
2022-10-21T23:56:13.653Z,15.63
2022-10-21T23:58:40.481Z,15.20
